createdAt,value
2022-09-18T00:01:14.677Z,17.30
2022-09-18T00:03:43.213Z,21.23
2022-09-18T00:06:13.380Z,19.77
2022-09-18T00:08:43.733Z,17.48
2022-09-18T00:11:13.224Z,21.95
2022-09-18T00:13:43.997Z,20.58
2022-09-18T00:16:13.520Z,22.48
2022-09-18T00:18:41.826Z,27.58
2022-09-18T00:21:17.614Z,32.65
2022-09-18T00:23:45.523Z,29.90
2022-09-18T00:26:14.367Z,37.05
2022-09-18T00:28:42.295Z,36.13
2022-09-18T00:31:12.205Z,37.60
2022-09-18T00:33:40.253Z,36.70
2022-09-18T00:36:09.960Z,36.15
2022-09-18T00:38:39.317Z,39.85
2022-09-18T00:41:09.348Z,41.45
2022-09-18T00:43:37.851Z,46.50
2022-09-18T00:46:26.404Z,43.13
2022-09-18T00:49:08.699Z,50.03
2022-09-18T00:51:36.865Z,47.35
2022-09-18T00:54:26.437Z,48.03
2022-09-18T00:56:56.000Z,43.58
2022-09-18T00:59:31.801Z,48.63
2022-09-18T01:01:59.865Z,38.60
2022-09-18T01:04:28.998Z,42.47
2022-09-18T01:07:08.924Z,44.13
2022-09-18T01:09:43.598Z,46.67
2022-09-18T01:12:38.629Z,43.13
2022-09-18T01:15:34.995Z,44.28
2022-09-18T01:18:30.745Z,44.38
2022-09-18T01:21:08.838Z,42.40
2022-09-18T01:23:52.428Z,46.28
2022-09-18T01:26:54.596Z,52.40
2022-09-18T01:29:43.069Z,47.10
2022-09-18T01:32:17.264Z,43.08
2022-09-18T01:35:18.782Z,43.85
2022-09-18T01:38:00.304Z,39.70
2022-09-18T01:40:36.865Z,39.17
2022-09-18T01:43:08.690Z,37.92
2022-09-18T01:45:39.382Z,37.15
2022-09-18T01:48:08.048Z,40.63
2022-09-18T01:50:42.915Z,37.67
2022-09-18T01:53:14.667Z,41.10
2022-09-18T01:55:47.090Z,39.85
2022-09-18T01:58:20.946Z,35.80
2022-09-18T02:00:51.826Z,35.42
2022-09-18T02:03:23.565Z,32.20
2022-09-18T02:06:22.371Z,31.48
2022-09-18T02:08:56.244Z,31.98
2022-09-18T02:11:25.186Z,33.63
2022-09-18T02:14:05.806Z,33.25
2022-09-18T02:16:55.150Z,33.55
2022-09-18T02:19:41.251Z,34.95
2022-09-18T02:22:10.844Z,32.25
2022-09-18T02:24:41.070Z,38.85
2022-09-18T02:27:09.673Z,38.55
2022-09-18T02:29:37.455Z,31.48
2022-09-18T02:32:05.336Z,33.03
2022-09-18T02:34:33.332Z,29.50
2022-09-18T02:37:21.411Z,32.65
2022-09-18T02:40:04.794Z,29.55
2022-09-18T02:42:47.553Z,32.92
2022-09-18T02:45:27.280Z,34.40
2022-09-18T02:48:05.330Z,31.10
2022-09-18T02:50:48.118Z,33.17
2022-09-18T02:53:34.539Z,36.40
2022-09-18T02:56:05.859Z,38.47
2022-09-18T02:58:42.782Z,34.60
2022-09-18T03:01:12.457Z,38.15
2022-09-18T03:03:41.301Z,39.10
2022-09-18T03:06:11.496Z,37.80
2022-09-18T03:08:39.405Z,37.50
2022-09-18T03:11:07.235Z,45.45
2022-09-18T03:13:36.397Z,43.38
2022-09-18T03:16:04.570Z,47.90
2022-09-18T03:18:32.382Z,42.58
2022-09-18T03:21:01.170Z,38.70
2022-09-18T03:23:29.040Z,45.47
2022-09-18T03:26:13.736Z,41.40
2022-09-18T03:28:41.696Z,41.00
2022-09-18T03:31:09.816Z,38.28
2022-09-18T03:33:38.057Z,46.70
2022-09-18T03:36:06.599Z,39.90
2022-09-18T03:38:37.903Z,40.95
2022-09-18T03:41:07.497Z,37.38
2022-09-18T03:43:36.631Z,37.00
2022-09-18T03:46:06.115Z,39.00
2022-09-18T03:48:34.710Z,37.80
2022-09-18T03:51:03.708Z,42.58
2022-09-18T03:53:32.805Z,43.25
2022-09-18T03:56:33.240Z,40.03
2022-09-18T03:59:14.011Z,35.35
2022-09-18T04:01:58.813Z,44.80
2022-09-18T04:04:27.078Z,45.35
2022-09-18T04:07:14.007Z,33.90
2022-09-18T04:10:00.305Z,34.65
2022-09-18T04:12:30.272Z,38.42
2022-09-18T04:15:19.395Z,42.10
2022-09-18T04:17:48.955Z,39.00
2022-09-18T04:20:17.701Z,35.83
2022-09-18T04:22:45.600Z,35.88
2022-09-18T04:25:13.447Z,37.17
2022-09-18T04:27:41.764Z,34.92
2022-09-18T04:30:10.818Z,37.50
2022-09-18T04:32:42.805Z,34.97
2022-09-18T04:35:10.708Z,40.30
2022-09-18T04:37:38.512Z,42.63
2022-09-18T04:40:07.840Z,35.25
2022-09-18T04:42:36.200Z,33.40
2022-09-18T04:45:06.736Z,30.10
2022-09-18T04:47:35.192Z,28.50
2022-09-18T04:50:04.195Z,27.63
2022-09-18T04:52:32.868Z,27.50
2022-09-18T04:55:02.663Z,27.80
2022-09-18T04:57:31.138Z,27.65
2022-09-18T04:59:59.022Z,33.08
2022-09-18T05:02:26.976Z,31.92
2022-09-18T05:04:54.922Z,25.88
2022-09-18T05:07:39.587Z,31.15
2022-09-18T05:10:10.590Z,25.35
2022-09-18T05:12:42.120Z,24.42
2022-09-18T05:15:12.756Z,30.23
2022-09-18T05:17:41.089Z,23.83
2022-09-18T05:20:11.210Z,30.73
2022-09-18T05:22:45.573Z,26.88
2022-09-18T05:25:14.251Z,23.58
2022-09-18T05:27:42.513Z,23.67
2022-09-18T05:30:10.967Z,19.50
2022-09-18T05:33:00.278Z,21.95
2022-09-18T05:35:31.666Z,17.75
2022-09-18T05:38:00.361Z,16.92
2022-09-18T05:40:31.877Z,17.83
2022-09-18T05:43:03.175Z,21.33
2022-09-18T05:45:33.553Z,21.00
2022-09-18T05:48:05.799Z,18.20
2022-09-18T05:50:36.595Z,19.15
2022-09-18T05:53:08.896Z,22.88
2022-09-18T05:55:45.024Z,21.88
2022-09-18T05:58:16.548Z,18.55
2022-09-18T06:00:44.990Z,20.70
2022-09-18T06:03:20.054Z,16.50
2022-09-18T06:05:54.646Z,19.85
2022-09-18T06:08:23.532Z,16.67
2022-09-18T06:10:52.371Z,17.40
2022-09-18T06:13:20.435Z,19.33
2022-09-18T06:15:54.813Z,12.98
2022-09-18T06:18:51.561Z,13.07
2022-09-18T06:21:19.648Z,13.00
2022-09-18T06:23:47.788Z,16.17
2022-09-18T06:26:24.847Z,15.02
2022-09-18T06:28:52.719Z,17.08
2022-09-18T06:31:20.692Z,19.08
2022-09-18T06:34:11.828Z,12.88
2022-09-18T06:36:43.850Z,15.45
2022-09-18T06:39:28.109Z,13.35
2022-09-18T06:42:00.377Z,16.90
2022-09-18T06:44:46.584Z,22.15
2022-09-18T06:47:16.171Z,13.10
2022-09-18T06:49:46.939Z,18.05
2022-09-18T06:52:17.180Z,11.45
2022-09-18T06:54:45.068Z,14.52
2022-09-18T06:57:24.263Z,15.82
2022-09-18T06:59:53.032Z,13.60
2022-09-18T07:02:20.862Z,13.85
2022-09-18T07:04:55.829Z,16.63
2022-09-18T07:07:24.053Z,13.70
2022-09-18T07:09:52.858Z,10.57
2022-09-18T07:12:40.500Z,10.38
2022-09-18T07:15:10.159Z,8.90
2022-09-18T07:17:38.101Z,12.35
2022-09-18T07:20:10.324Z,10.95
2022-09-18T07:22:44.921Z,9.02
2022-09-18T07:25:15.657Z,10.43
2022-09-18T07:27:44.876Z,9.70
2022-09-18T07:30:19.420Z,9.07
2022-09-18T07:32:48.091Z,9.20
2022-09-18T07:35:19.849Z,15.75
2022-09-18T07:37:47.733Z,8.73
2022-09-18T07:40:25.502Z,7.50
2022-09-18T07:43:15.445Z,10.50
2022-09-18T07:45:49.856Z,8.10
2022-09-18T07:48:22.992Z,9.80
2022-09-18T07:51:00.388Z,9.23
2022-09-18T07:53:29.658Z,7.93
2022-09-18T07:56:00.417Z,5.50
2022-09-18T07:58:31.716Z,7.75
2022-09-18T08:01:06.117Z,5.97
2022-09-18T08:03:43.773Z,6.97
2022-09-18T08:06:14.490Z,8.20
2022-09-18T08:08:55.166Z,6.22
2022-09-18T08:11:56.558Z,6.68
2022-09-18T08:14:50.598Z,7.13
2022-09-18T08:17:45.596Z,9.32
2022-09-18T08:20:36.682Z,4.82
2022-09-18T08:23:16.351Z,7.25
2022-09-18T08:25:44.691Z,6.15
2022-09-18T08:28:14.084Z,5.70
2022-09-18T08:30:48.500Z,6.57
2022-09-18T08:33:16.647Z,5.85
2022-09-18T08:35:45.471Z,9.05
2022-09-18T08:38:22.492Z,6.18
2022-09-18T08:41:42.520Z,7.32
2022-09-18T08:44:31.625Z,5.03
2022-09-18T08:47:12.704Z,5.20
2022-09-18T08:50:01.678Z,3.58
2022-09-18T08:52:33.173Z,5.55
2022-09-18T08:55:06.606Z,5.60
2022-09-18T08:58:25.331Z,4.57
2022-09-18T09:00:55.096Z,4.95
2022-09-18T09:04:20.455Z,7.22
2022-09-18T09:07:08.770Z,4.55
2022-09-18T09:10:19.521Z,4.07
2022-09-18T09:13:16.265Z,4.05
2022-09-18T09:16:06.762Z,8.23
2022-09-18T09:18:56.444Z,3.95
2022-09-18T09:21:36.278Z,9.07
2022-09-18T09:24:23.451Z,5.00
2022-09-18T09:27:41.433Z,4.70
2022-09-18T09:30:27.897Z,5.03
2022-09-18T09:33:28.048Z,7.28
2022-09-18T09:36:11.680Z,5.95
2022-09-18T09:39:07.919Z,6.28
2022-09-18T09:41:43.193Z,5.63
2022-09-18T09:44:31.401Z,4.03
2022-09-18T09:47:05.142Z,3.85
2022-09-18T09:49:47.686Z,7.22
2022-09-18T09:55:27.924Z,16.85
2022-09-18T09:58:20.974Z,24.35
2022-09-18T10:01:11.778Z,34.72
2022-09-18T10:04:05.631Z,103.53
2022-09-18T10:06:55.502Z,33.63
2022-09-18T10:09:49.967Z,20.40
2022-09-18T10:12:43.547Z,4.57
2022-09-18T10:15:31.324Z,14.60
2022-09-18T10:18:02.126Z,5.18
2022-09-18T10:20:31.604Z,3.13
2022-09-18T10:23:17.225Z,6.00
2022-09-18T10:25:54.847Z,4.80
2022-09-18T10:28:25.754Z,3.17
2022-09-18T10:31:10.724Z,5.43
2022-09-18T10:33:50.429Z,6.38
2022-09-18T10:36:36.160Z,7.75
2022-09-18T10:39:36.649Z,6.05
2022-09-18T10:42:14.442Z,4.85
2022-09-18T10:44:48.257Z,3.95
2022-09-18T10:47:31.701Z,5.55
2022-09-18T10:50:21.777Z,3.35
2022-09-18T10:52:54.228Z,8.32
2022-09-18T10:55:27.795Z,2.78
2022-09-18T10:57:59.846Z,6.43
2022-09-18T11:00:35.083Z,5.18
2022-09-18T11:03:14.919Z,7.78
2022-09-18T11:05:52.838Z,3.90
2022-09-18T11:08:23.446Z,3.45
2022-09-18T11:10:57.448Z,2.60
2022-09-18T11:13:27.245Z,3.65
2022-09-18T11:15:59.738Z,3.38
2022-09-18T11:18:29.740Z,3.13
2022-09-18T11:21:01.484Z,5.03
2022-09-18T11:23:31.612Z,6.22
2022-09-18T11:26:14.846Z,2.88
2022-09-18T11:28:43.669Z,6.35
2022-09-18T11:31:16.436Z,5.85
2022-09-18T11:34:06.537Z,9.55
2022-09-18T11:36:41.129Z,6.63
2022-09-18T11:39:14.949Z,5.82
2022-09-18T11:41:44.273Z,5.15
2022-09-18T11:44:16.955Z,3.22
2022-09-18T11:47:11.588Z,4.20
2022-09-18T11:49:52.635Z,7.45
2022-09-18T11:52:52.956Z,4.03
2022-09-18T11:55:27.774Z,13.65
2022-09-18T11:58:09.064Z,5.90
2022-09-18T12:00:44.044Z,4.70
2022-09-18T12:03:27.186Z,2.90
2022-09-18T12:06:12.963Z,3.08
2022-09-18T12:08:52.451Z,4.13
2022-09-18T12:11:57.068Z,4.18
2022-09-18T12:14:33.112Z,2.90
2022-09-18T12:17:17.766Z,3.95
2022-09-18T12:19:57.045Z,7.07
2022-09-18T12:22:36.863Z,3.90
2022-09-18T12:25:15.066Z,4.88
2022-09-18T12:28:22.135Z,4.00
2022-09-18T12:31:06.521Z,3.17
2022-09-18T12:33:54.864Z,6.32
2022-09-18T12:36:57.124Z,5.90
2022-09-18T12:39:38.782Z,5.65
2022-09-18T12:43:02.108Z,2.33
2022-09-18T12:45:44.593Z,3.78
2022-09-18T12:48:27.193Z,1.70
2022-09-18T12:51:16.041Z,7.93
2022-09-18T12:53:54.074Z,3.08
2022-09-18T12:57:12.513Z,4.55
2022-09-18T12:59:59.015Z,7.05
2022-09-18T13:02:51.137Z,7.97
2022-09-18T13:05:45.479Z,3.88
2022-09-18T13:08:27.896Z,4.05
2022-09-18T13:11:09.818Z,4.00
2022-09-18T13:13:37.997Z,5.13
2022-09-18T13:16:22.749Z,3.15
2022-09-18T13:18:58.661Z,2.58
2022-09-18T13:21:28.221Z,2.53
2022-09-18T13:23:56.076Z,1.50
2022-09-18T13:26:25.421Z,3.53
2022-09-18T13:28:53.215Z,2.53
2022-09-18T13:31:31.967Z,4.82
2022-09-18T13:34:04.774Z,2.60
2022-09-18T13:36:36.360Z,6.15
2022-09-18T13:39:27.224Z,9.35
2022-09-18T13:41:56.337Z,4.22
2022-09-18T13:44:29.140Z,3.53
2022-09-18T13:47:19.304Z,18.45
2022-09-18T13:49:54.447Z,3.53
2022-09-18T13:52:35.154Z,2.13
2022-09-18T13:55:25.397Z,6.43
2022-09-18T13:58:13.330Z,3.58
2022-09-18T14:00:41.883Z,1.77
2022-09-18T14:03:13.340Z,5.75
2022-09-18T14:05:42.192Z,8.25
2022-09-18T14:08:26.116Z,3.53
2022-09-18T14:11:14.954Z,4.10
2022-09-18T14:13:51.245Z,3.03
2022-09-18T14:16:20.559Z,3.47
2022-09-18T14:18:48.478Z,5.65
2022-09-18T14:21:19.313Z,7.53
2022-09-18T14:23:47.122Z,3.40
2022-09-18T14:26:30.252Z,1.55
2022-09-18T14:29:15.512Z,4.38
2022-09-18T14:31:51.771Z,4.78
2022-09-18T14:34:40.800Z,4.03
2022-09-18T14:37:25.035Z,6.90
2022-09-18T14:39:55.351Z,4.43
2022-09-18T14:42:36.606Z,4.97
2022-09-18T14:45:13.887Z,5.50
2022-09-18T14:47:44.479Z,8.30
2022-09-18T14:50:26.024Z,4.90
2022-09-18T14:52:54.045Z,5.28
2022-09-18T14:55:23.890Z,8.73
2022-09-18T14:58:15.734Z,6.55
2022-09-18T15:00:44.206Z,5.28
2022-09-18T15:03:46.507Z,3.80
2022-09-18T15:06:24.873Z,4.72
2022-09-18T15:08:56.665Z,4.53
2022-09-18T15:11:37.759Z,5.07
2022-09-18T15:14:28.223Z,3.08
2022-09-18T15:16:57.666Z,8.45
2022-09-18T15:19:25.776Z,6.65
2022-09-18T15:21:54.433Z,6.72
2022-09-18T15:24:22.211Z,5.07
2022-09-18T15:26:55.598Z,5.30
2022-09-18T15:29:33.201Z,9.65
2022-09-18T15:32:03.673Z,4.25
2022-09-18T15:34:37.637Z,4.72
2022-09-18T15:37:05.712Z,10.90
2022-09-18T15:39:35.117Z,4.45
2022-09-18T15:42:33.746Z,5.15
2022-09-18T15:45:01.529Z,11.13
2022-09-18T15:47:36.588Z,4.10
2022-09-18T15:50:13.636Z,6.97
2022-09-18T15:53:03.302Z,2.35
2022-09-18T15:56:02.336Z,3.03
2022-09-18T15:58:37.272Z,7.47
2022-09-18T16:01:06.499Z,3.63
2022-09-18T16:03:34.414Z,3.58
2022-09-18T16:06:03.946Z,2.58
2022-09-18T16:08:33.297Z,3.47
2022-09-18T16:11:01.222Z,3.38
2022-09-18T16:13:31.842Z,5.50
2022-09-18T16:16:09.083Z,2.08
2022-09-18T16:19:17.448Z,5.00
2022-09-18T16:21:46.944Z,4.60
2022-09-18T16:24:34.134Z,4.35
2022-09-18T16:27:05.608Z,2.75
2022-09-18T16:29:40.462Z,5.90
2022-09-18T16:32:14.459Z,6.13
2022-09-18T16:34:45.149Z,2.80
2022-09-18T16:37:13.318Z,6.53
2022-09-18T16:39:41.470Z,5.97
2022-09-18T16:42:17.911Z,3.95
2022-09-18T16:44:46.301Z,4.15
2022-09-18T16:47:14.676Z,3.33
2022-09-18T16:49:44.344Z,3.25
2022-09-18T16:52:13.993Z,3.35
2022-09-18T16:54:42.235Z,7.00
2022-09-18T16:57:11.646Z,4.93
2022-09-18T16:59:40.752Z,4.35
2022-09-18T17:02:08.703Z,10.90
2022-09-18T17:04:39.252Z,5.30
2022-09-18T17:07:08.033Z,2.72
2022-09-18T17:09:35.793Z,4.43
2022-09-18T17:12:04.860Z,3.78
2022-09-18T17:14:34.866Z,5.70
2022-09-18T17:17:04.408Z,3.85
2022-09-18T17:19:32.588Z,4.05
2022-09-18T17:22:00.481Z,2.70
2022-09-18T17:24:28.489Z,7.97
2022-09-18T17:26:56.260Z,3.38
2022-09-18T17:29:25.760Z,5.68
2022-09-18T17:31:53.730Z,4.35
2022-09-18T17:34:22.993Z,3.90
2022-09-18T17:36:51.355Z,2.65
2022-09-18T17:39:19.247Z,3.42
2022-09-18T17:41:47.371Z,3.33
2022-09-18T17:44:15.657Z,2.47
2022-09-18T17:46:43.462Z,2.35
2022-09-18T17:49:11.272Z,4.57
2022-09-18T17:51:39.361Z,1.80
2022-09-18T17:54:08.310Z,8.05
2022-09-18T17:56:36.639Z,3.47
2022-09-18T17:59:06.335Z,1.30
2022-09-18T18:01:37.703Z,1.40
2022-09-18T18:04:07.626Z,4.10
2022-09-18T18:06:37.029Z,3.22
2022-09-18T18:09:06.724Z,1.17
2022-09-18T18:11:36.859Z,3.10
2022-09-18T18:14:05.612Z,0.60
2022-09-18T18:16:34.501Z,0.75
2022-09-18T18:19:06.236Z,0.50
2022-09-18T18:21:34.509Z,1.42
2022-09-18T18:24:05.527Z,1.75
2022-09-18T18:26:36.062Z,1.98
2022-09-18T18:29:06.557Z,2.55
2022-09-18T18:31:34.551Z,3.50
2022-09-18T18:34:02.478Z,7.18
2022-09-18T18:36:32.004Z,1.33
2022-09-18T18:39:00.930Z,1.40
2022-09-18T18:41:29.782Z,0.82
2022-09-18T18:43:59.496Z,2.45
2022-09-18T18:46:28.680Z,4.00
2022-09-18T18:49:02.824Z,0.80
2022-09-18T18:51:36.104Z,5.10
2022-09-18T18:54:05.026Z,0.73
2022-09-18T18:56:35.357Z,2.00
2022-09-18T18:59:03.763Z,0.60
2022-09-18T19:01:32.813Z,0.28
2022-09-18T19:04:08.475Z,4.63
2022-09-18T19:06:39.049Z,1.67
2022-09-18T19:09:08.774Z,0.50
2022-09-18T19:11:42.706Z,4.13
2022-09-18T19:14:15.109Z,0.30
2022-09-18T19:16:43.886Z,1.88
2022-09-18T19:19:12.300Z,0.57
2022-09-18T19:21:40.299Z,1.30
2022-09-18T19:24:08.980Z,1.88
2022-09-18T19:26:37.277Z,0.40
2022-09-18T19:29:09.047Z,4.18
2022-09-18T19:31:38.350Z,0.80
2022-09-18T19:34:06.503Z,0.43
2022-09-18T19:36:34.952Z,3.38
2022-09-18T19:39:04.804Z,2.65
2022-09-18T19:41:39.017Z,0.90
2022-09-18T19:44:41.954Z,2.75
2022-09-18T19:47:28.022Z,1.85
2022-09-18T19:49:57.122Z,1.85
2022-09-18T19:52:26.182Z,0.77
2022-09-18T19:54:54.786Z,3.47
2022-09-18T19:57:23.869Z,2.28
2022-09-18T19:59:57.234Z,4.75
2022-09-18T20:02:25.962Z,0.70
2022-09-18T20:04:54.314Z,1.58
2022-09-18T20:07:25.077Z,0.52
2022-09-18T20:09:53.248Z,1.17
2022-09-18T20:12:21.127Z,1.45
2022-09-18T20:14:50.932Z,4.65
2022-09-18T20:17:18.980Z,3.63
2022-09-18T20:19:48.159Z,0.40
2022-09-18T20:22:16.750Z,1.63
2022-09-18T20:24:44.551Z,0.60
2022-09-18T20:27:13.072Z,1.52
2022-09-18T20:29:41.143Z,1.05
2022-09-18T20:32:09.399Z,0.73
2022-09-18T20:34:38.227Z,0.60
2022-09-18T20:37:09.505Z,0.95
2022-09-18T20:39:38.411Z,1.27
2022-09-18T20:42:06.651Z,0.40
2022-09-18T20:44:35.219Z,1.35
2022-09-18T20:47:03.889Z,0.77
2022-09-18T20:49:34.825Z,0.50
2022-09-18T20:52:03.480Z,0.63
2022-09-18T20:54:31.641Z,1.95
2022-09-18T20:57:00.646Z,0.40
2022-09-18T20:59:29.151Z,2.03
2022-09-18T21:01:58.345Z,0.45
2022-09-18T21:04:26.726Z,1.00
2022-09-18T21:06:56.560Z,0.52
2022-09-18T21:09:28.551Z,0.90
2022-09-18T21:11:57.000Z,0.75
2022-09-18T21:14:25.864Z,0.95
2022-09-18T21:16:53.669Z,0.85
2022-09-18T21:19:21.711Z,0.28
2022-09-18T21:21:49.689Z,5.43
2022-09-18T21:24:19.160Z,0.43
2022-09-18T21:26:48.274Z,0.30
2022-09-18T21:29:21.533Z,0.20
2022-09-18T21:31:51.456Z,0.22
2022-09-18T21:34:24.436Z,1.08
2022-09-18T21:37:14.011Z,0.43
2022-09-18T21:39:44.248Z,0.98
2022-09-18T21:42:12.412Z,0.35
2022-09-18T21:44:40.906Z,1.13
2022-09-18T21:47:10.836Z,0.20
2022-09-18T21:49:40.256Z,1.48
2022-09-18T21:52:08.495Z,1.73
2022-09-18T21:54:36.297Z,0.65
2022-09-18T21:57:04.183Z,1.65
2022-09-18T21:59:32.279Z,0.70
2022-09-18T22:02:00.949Z,1.55
2022-09-18T22:04:29.990Z,1.35
2022-09-18T22:06:58.826Z,0.57
2022-09-18T22:09:28.574Z,0.30
2022-09-18T22:11:56.867Z,0.95
2022-09-18T22:14:28.768Z,3.42
2022-09-18T22:16:56.676Z,1.65
2022-09-18T22:19:24.534Z,0.82
2022-09-18T22:21:52.617Z,0.70
2022-09-18T22:24:22.346Z,0.20
2022-09-18T22:26:52.498Z,0.55
2022-09-18T22:29:22.021Z,0.30
2022-09-18T22:31:50.027Z,0.50
2022-09-18T22:34:19.819Z,3.97
2022-09-18T22:36:51.823Z,0.20
2022-09-18T22:39:20.249Z,0.38
2022-09-18T22:41:48.171Z,0.60
2022-09-18T22:44:16.861Z,1.58
2022-09-18T22:46:46.376Z,0.63
2022-09-18T22:49:15.176Z,0.47
2022-09-18T22:51:43.100Z,0.38
2022-09-18T22:54:10.999Z,0.80
2022-09-18T22:56:46.112Z,1.13
2022-09-18T22:59:15.046Z,2.65
2022-09-18T23:02:00.480Z,0.35
2022-09-18T23:04:30.177Z,0.38
2022-09-18T23:06:59.377Z,6.53
2022-09-18T23:09:29.695Z,0.88
2022-09-18T23:11:57.851Z,0.25
2022-09-18T23:14:27.860Z,0.45
2022-09-18T23:16:56.306Z,0.50
2022-09-18T23:19:29.035Z,1.13
2022-09-18T23:21:56.964Z,0.82
2022-09-18T23:24:25.559Z,0.45
2022-09-18T23:26:54.036Z,2.97
2022-09-18T23:29:22.750Z,0.20
2022-09-18T23:31:53.127Z,0.70
2022-09-18T23:34:24.375Z,0.32
2022-09-18T23:36:53.418Z,0.47
2022-09-18T23:39:29.249Z,0.57
2022-09-18T23:41:58.885Z,0.50
2022-09-18T23:44:32.018Z,0.80
2022-09-18T23:47:00.581Z,1.77
2022-09-18T23:49:28.882Z,0.60
2022-09-18T23:51:57.143Z,1.05
2022-09-18T23:54:29.330Z,1.23
2022-09-18T23:56:57.448Z,0.47
2022-09-18T23:59:25.640Z,0.85
